createdAt,value
2018-09-04T00:00:14.549Z,12.47
2018-09-04T00:02:44.128Z,13.70
2018-09-04T00:05:13.352Z,13.62
2018-09-04T00:07:42.492Z,12.43
2018-09-04T00:10:11.956Z,11.93
2018-09-04T00:12:41.637Z,11.50
2018-09-04T00:15:10.832Z,12.37
2018-09-04T00:17:40.940Z,11.83
2018-09-04T00:20:10.148Z,11.83
2018-09-04T00:22:39.349Z,12.33
2018-09-04T00:25:08.580Z,13.40
2018-09-04T00:27:38.547Z,14.03
2018-09-04T00:30:08.216Z,13.32
2018-09-04T00:32:37.336Z,11.93
2018-09-04T00:35:06.813Z,11.85
2018-09-04T00:37:35.971Z,12.70
2018-09-04T00:40:06.340Z,13.70
2018-09-04T00:42:35.488Z,13.30
2018-09-04T00:45:04.808Z,12.85
2018-09-04T00:47:34.117Z,13.80
2018-09-04T00:50:03.240Z,13.55
2018-09-04T00:52:32.512Z,13.72
2018-09-04T00:55:01.680Z,15.23
2018-09-04T00:57:30.880Z,14.00
2018-09-04T01:00:00.608Z,12.88
2018-09-04T01:02:29.792Z,14.30
2018-09-04T01:04:58.955Z,13.58
2018-09-04T01:07:28.080Z,13.18
2018-09-04T01:09:57.272Z,13.98
2018-09-04T01:12:26.512Z,12.65
2018-09-04T01:14:58.274Z,13.43
2018-09-04T01:17:27.480Z,13.38
2018-09-04T01:19:56.608Z,12.70
2018-09-04T01:22:26.060Z,12.58
2018-09-04T01:24:55.232Z,13.50
2018-09-04T01:27:24.328Z,14.53
2018-09-04T01:29:53.496Z,14.05
2018-09-04T01:32:22.603Z,15.03
2018-09-04T01:34:51.631Z,13.45
2018-09-04T01:37:20.783Z,13.53
2018-09-04T01:39:49.904Z,14.33
2018-09-04T01:42:19.296Z,13.68
2018-09-04T01:44:48.628Z,14.70
2018-09-04T01:47:17.757Z,14.23
2018-09-04T01:49:46.928Z,14.80
2018-09-04T01:52:16.292Z,15.45
2018-09-04T01:54:45.645Z,15.30
2018-09-04T01:57:14.776Z,15.13
2018-09-04T01:59:43.880Z,14.38
2018-09-04T02:02:14.276Z,14.83
2018-09-04T02:04:43.420Z,14.53
2018-09-04T02:07:12.744Z,14.65
2018-09-04T02:09:41.904Z,14.63
2018-09-04T02:12:11.094Z,13.05
2018-09-04T02:14:40.352Z,12.75
2018-09-04T02:17:09.844Z,11.95
2018-09-04T02:19:38.940Z,12.40
2018-09-04T02:22:08.140Z,12.00
2018-09-04T02:24:37.540Z,12.90
2018-09-04T02:27:06.712Z,13.08
2018-09-04T02:29:35.783Z,12.80
2018-09-04T02:32:04.887Z,13.03
2018-09-04T02:34:34.076Z,13.63
2018-09-04T02:37:03.300Z,13.25
2018-09-04T02:39:32.384Z,13.08
2018-09-04T02:42:01.476Z,13.68
2018-09-04T02:44:30.909Z,13.97
2018-09-04T02:47:00.068Z,12.68
2018-09-04T02:49:29.266Z,12.30
2018-09-04T02:51:58.471Z,11.05
2018-09-04T02:54:27.580Z,11.85
2018-09-04T02:56:56.697Z,12.13
2018-09-04T02:59:26.493Z,11.35
2018-09-04T03:01:55.676Z,10.28
2018-09-04T03:04:25.292Z,11.40
2018-09-04T03:06:54.992Z,11.57
2018-09-04T03:09:24.083Z,11.15
2018-09-04T03:11:53.520Z,11.80
2018-09-04T03:14:22.892Z,11.03
2018-09-04T03:16:51.976Z,11.48
2018-09-04T03:19:21.071Z,11.37
2018-09-04T03:21:50.213Z,11.27
2018-09-04T03:24:19.413Z,11.20
2018-09-04T03:26:48.468Z,11.70
2018-09-04T03:29:17.556Z,11.38
2018-09-04T03:31:47.684Z,11.83
2018-09-04T03:34:16.884Z,11.78
2018-09-04T03:36:46.116Z,11.60
2018-09-04T03:39:15.700Z,12.78
2018-09-04T03:41:45.129Z,12.50
2018-09-04T03:44:14.614Z,13.10
2018-09-04T03:46:43.688Z,12.25
2018-09-04T03:49:12.924Z,12.15
2018-09-04T03:51:42.328Z,12.33
2018-09-04T03:54:11.487Z,11.70
2018-09-04T03:56:40.696Z,11.68
2018-09-04T03:59:09.888Z,10.97
2018-09-04T04:01:39.128Z,11.20
2018-09-04T04:04:08.193Z,11.53
2018-09-04T04:06:37.253Z,10.78
2018-09-04T04:09:09.172Z,11.08
2018-09-04T04:11:38.240Z,11.07
2018-09-04T04:14:07.888Z,12.20
2018-09-04T04:16:36.971Z,11.15
2018-09-04T04:19:06.130Z,11.20
2018-09-04T04:21:35.323Z,10.50
2018-09-04T04:24:04.450Z,11.45
2018-09-04T04:26:33.656Z,11.47
2018-09-04T04:29:02.844Z,11.68
2018-09-04T04:31:32.332Z,11.80
2018-09-04T04:34:01.560Z,11.60
2018-09-04T04:36:30.672Z,11.15
2018-09-04T04:38:59.756Z,10.85
2018-09-04T04:41:29.152Z,10.20
2018-09-04T04:43:58.320Z,10.23
2018-09-04T04:46:27.464Z,10.00
2018-09-04T04:48:56.840Z,9.57
2018-09-04T04:51:26.016Z,9.03
2018-09-04T04:53:55.206Z,8.75
2018-09-04T04:56:24.312Z,8.55
2018-09-04T04:58:54.548Z,8.63
2018-09-04T05:01:23.961Z,9.20
2018-09-04T05:03:53.086Z,9.63
2018-09-04T05:06:22.221Z,9.13
2018-09-04T05:08:51.367Z,9.27
2018-09-04T05:11:21.495Z,8.97
2018-09-04T05:13:51.296Z,9.60
2018-09-04T05:16:20.729Z,10.15
2018-09-04T05:18:50.881Z,10.55
2018-09-04T05:21:20.101Z,10.25
2018-09-04T05:23:49.159Z,10.18
2018-09-04T05:26:18.238Z,9.88
2018-09-04T05:28:47.699Z,10.50
2018-09-04T05:31:17.745Z,9.95
2018-09-04T05:33:47.620Z,9.65
2018-09-04T05:36:17.309Z,10.08
2018-09-04T05:38:46.613Z,9.38
2018-09-04T05:41:16.500Z,9.45
2018-09-04T05:43:50.258Z,9.83
2018-09-04T05:46:35.068Z,8.85
2018-09-04T05:49:04.164Z,9.45
2018-09-04T05:51:33.391Z,9.65
2018-09-04T05:54:02.889Z,10.28
2018-09-04T05:56:32.072Z,12.18
2018-09-04T05:59:01.288Z,11.18
2018-09-04T06:01:30.662Z,9.55
2018-09-04T06:03:59.824Z,8.80
2018-09-04T06:06:29.880Z,8.88
2018-09-04T06:08:59.852Z,9.50
2018-09-04T06:11:29.097Z,9.03
2018-09-04T06:13:58.206Z,9.50
2018-09-04T06:16:28.413Z,9.33
2018-09-04T06:18:57.508Z,8.93
2018-09-04T06:21:26.748Z,9.93
2018-09-04T06:23:56.081Z,10.13
2018-09-04T06:26:25.143Z,10.20
2018-09-04T06:28:54.472Z,9.80
2018-09-04T06:31:23.805Z,10.18
2018-09-04T06:33:53.235Z,10.88
2018-09-04T06:36:23.341Z,11.88
2018-09-04T06:38:52.475Z,11.43
2018-09-04T06:41:21.624Z,11.25
2018-09-04T06:43:50.962Z,11.40
2018-09-04T06:46:20.078Z,11.48
2018-09-04T06:48:49.160Z,11.22
2018-09-04T06:51:18.466Z,12.37
2018-09-04T06:53:48.152Z,12.30
2018-09-04T06:56:17.287Z,12.58
2018-09-04T06:58:46.336Z,12.60
2018-09-04T07:01:15.560Z,14.60
2018-09-04T07:03:44.859Z,13.80
2018-09-04T07:06:14.032Z,13.72
2018-09-04T07:08:43.208Z,13.25
2018-09-04T07:11:12.780Z,13.48
2018-09-04T07:13:41.935Z,13.80
2018-09-04T07:16:11.134Z,14.07
2018-09-04T07:18:40.329Z,13.78
2018-09-04T07:21:10.587Z,14.43
2018-09-04T07:23:40.773Z,14.85
2018-09-04T07:26:09.944Z,14.43
2018-09-04T07:28:39.045Z,13.78
2018-09-04T07:31:09.122Z,15.18
2018-09-04T07:33:38.372Z,16.23
2018-09-04T07:36:08.024Z,16.25
2018-09-04T07:38:37.388Z,14.90
2018-09-04T07:41:06.589Z,15.40
2018-09-04T07:43:35.841Z,16.15
2018-09-04T07:46:05.076Z,16.35
2018-09-04T07:48:34.234Z,15.70
2018-09-04T07:51:03.380Z,15.68
2018-09-04T07:53:32.620Z,14.73
2018-09-04T07:56:03.300Z,15.00
2018-09-04T07:58:32.501Z,14.13
2018-09-04T08:01:01.844Z,14.98
2018-09-04T08:03:30.892Z,14.95
2018-09-04T08:06:00.129Z,15.28
2018-09-04T08:08:29.333Z,13.90
2018-09-04T08:10:58.829Z,13.98
2018-09-04T08:13:28.342Z,14.18
2018-09-04T08:15:58.450Z,14.38
2018-09-04T08:18:27.849Z,13.68
2018-09-04T08:20:57.748Z,14.07
2018-09-04T08:23:26.915Z,15.98
2018-09-04T08:25:56.981Z,15.32
2018-09-04T08:28:26.160Z,15.53
2018-09-04T08:30:56.206Z,16.30
2018-09-04T08:33:25.410Z,16.35
2018-09-04T08:35:54.804Z,15.98
2018-09-04T08:38:23.844Z,15.25
2018-09-04T08:40:55.212Z,15.93
2018-09-04T08:43:24.417Z,15.25
2018-09-04T08:45:54.436Z,14.50
2018-09-04T08:48:23.532Z,13.78
2018-09-04T08:50:52.873Z,12.37
2018-09-04T08:53:22.937Z,12.18
2018-09-04T08:55:52.552Z,12.33
2018-09-04T08:58:21.680Z,13.72
2018-09-04T09:00:51.009Z,13.38
2018-09-04T09:03:21.269Z,12.40
2018-09-04T09:05:54.814Z,12.93
2018-09-04T09:08:23.986Z,11.78
2018-09-04T09:10:53.157Z,11.53
2018-09-04T09:13:22.929Z,11.20
2018-09-04T09:15:54.256Z,10.10
2018-09-04T09:18:24.889Z,10.65
2018-09-04T09:20:54.609Z,10.25
2018-09-04T09:23:23.710Z,9.65
2018-09-04T09:25:56.064Z,10.00
2018-09-04T09:28:25.431Z,8.78
2018-09-04T09:30:54.561Z,10.00
2018-09-04T09:33:23.703Z,8.55
2018-09-04T09:35:52.833Z,8.33
2018-09-04T09:38:22.405Z,8.38
2018-09-04T09:40:52.532Z,8.68
2018-09-04T09:43:21.568Z,7.65
2018-09-04T09:45:50.941Z,7.03
2018-09-04T09:48:20.036Z,7.33
2018-09-04T09:50:50.175Z,5.83
2018-09-04T09:53:19.487Z,6.03
2018-09-04T09:55:48.533Z,6.80
2018-09-04T09:58:17.743Z,5.78
2018-09-04T10:00:52.846Z,6.67
2018-09-04T10:03:27.196Z,7.28
2018-09-04T10:05:56.313Z,6.60
2018-09-04T10:08:25.405Z,8.00
2018-09-04T10:10:54.644Z,7.50
2018-09-04T10:13:23.707Z,6.40
2018-09-04T10:15:53.508Z,7.50
2018-09-04T10:18:22.992Z,6.87
2018-09-04T10:20:52.126Z,7.58
2018-09-04T10:23:21.241Z,7.28
2018-09-04T10:25:50.589Z,6.87
2018-09-04T10:28:21.020Z,7.40
2018-09-04T10:30:50.151Z,7.45
2018-09-04T10:33:19.315Z,6.72
2018-09-04T10:35:48.777Z,6.80
2018-09-04T10:38:17.812Z,6.28
2018-09-04T10:40:47.836Z,5.60
2018-09-04T10:43:17.172Z,6.03
2018-09-04T10:45:51.652Z,6.75
2018-09-04T10:48:24.525Z,6.42
2018-09-04T10:50:56.853Z,6.25
2018-09-04T10:53:26.073Z,6.75
2018-09-04T10:55:55.399Z,6.67
2018-09-04T10:58:24.653Z,5.70
2018-09-04T11:00:53.836Z,4.53
2018-09-04T11:03:23.212Z,4.50
2018-09-04T11:05:52.570Z,4.58
2018-09-04T11:08:22.403Z,5.87
2018-09-04T11:10:52.888Z,4.33
2018-09-04T11:13:22.084Z,4.30
2018-09-04T11:15:54.669Z,4.80
2018-09-04T11:18:24.319Z,4.83
2018-09-04T11:20:53.577Z,4.22
2018-09-04T11:23:22.788Z,4.58
2018-09-04T11:25:52.834Z,5.60
2018-09-04T11:28:22.298Z,5.58
2018-09-04T11:30:51.596Z,5.22
2018-09-04T11:33:20.840Z,4.50
2018-09-04T11:35:51.596Z,4.78
2018-09-04T11:38:20.712Z,4.80
2018-09-04T11:40:50.347Z,4.62
2018-09-04T11:43:19.721Z,5.37
2018-09-04T11:45:49.807Z,4.67
2018-09-04T11:48:19.033Z,4.42
2018-09-04T11:50:48.157Z,3.83
2018-09-04T11:53:17.281Z,4.10
2018-09-04T11:55:47.540Z,4.10
2018-09-04T11:58:16.760Z,3.98
2018-09-04T12:00:48.768Z,4.17
2018-09-04T12:03:18.014Z,3.77
2018-09-04T12:05:47.366Z,4.80
2018-09-04T12:08:16.368Z,4.08
2018-09-04T12:10:46.396Z,4.35
2018-09-04T12:13:21.050Z,4.03
2018-09-04T12:15:50.615Z,4.00
2018-09-04T12:18:19.844Z,4.10
2018-09-04T12:20:51.058Z,4.28
2018-09-04T12:23:21.028Z,4.42
2018-09-04T12:25:51.609Z,4.15
2018-09-04T12:28:21.060Z,4.28
2018-09-04T12:30:51.172Z,4.42
2018-09-04T12:33:20.336Z,4.47
2018-09-04T12:35:49.648Z,4.70
2018-09-04T12:38:21.036Z,4.37
2018-09-04T12:40:51.033Z,4.28
2018-09-04T12:43:20.503Z,3.60
2018-09-04T12:45:49.612Z,3.85
2018-09-04T12:48:24.568Z,3.83
2018-09-04T12:50:54.864Z,4.10
2018-09-04T12:53:24.988Z,3.77
2018-09-04T12:55:54.192Z,3.92
2018-09-04T12:58:23.284Z,4.00
2018-09-04T13:00:53.712Z,4.22
2018-09-04T13:03:24.839Z,3.90
2018-09-04T13:05:54.285Z,3.42
2018-09-04T13:08:25.125Z,3.60
2018-09-04T13:10:54.289Z,3.75
2018-09-04T13:13:23.404Z,3.80
2018-09-04T13:15:54.200Z,4.03
2018-09-04T13:18:23.821Z,3.52
2018-09-04T13:20:53.104Z,4.00
2018-09-04T13:23:22.328Z,3.83
2018-09-04T13:25:53.141Z,3.75
2018-09-04T13:28:22.401Z,3.72
2018-09-04T13:30:51.500Z,3.40
2018-09-04T13:33:21.577Z,4.00
2018-09-04T13:35:50.693Z,4.08
2018-09-04T13:38:19.908Z,4.17
2018-09-04T13:40:52.368Z,4.28
2018-09-04T13:43:21.680Z,3.77
2018-09-04T13:45:50.841Z,4.22
2018-09-04T13:48:24.056Z,3.55
2018-09-04T13:50:57.302Z,3.90
2018-09-04T13:53:27.259Z,3.75
2018-09-04T13:55:56.822Z,3.35
2018-09-04T13:58:25.979Z,3.98
2018-09-04T14:00:55.196Z,3.65
2018-09-04T14:03:24.536Z,3.90
2018-09-04T14:05:53.832Z,3.98
2018-09-04T14:08:23.120Z,4.20
2018-09-04T14:10:52.420Z,3.87
2018-09-04T14:13:21.472Z,3.77
2018-09-04T14:15:53.104Z,3.98
2018-09-04T14:18:22.292Z,3.70
2018-09-04T14:20:51.492Z,3.75
2018-09-04T14:23:20.776Z,3.70
2018-09-04T14:25:51.328Z,4.30
2018-09-04T14:28:40.973Z,3.80
2018-09-04T14:30:49.664Z,3.92
2018-09-04T14:33:18.796Z,4.10
2018-09-04T14:35:48.020Z,4.20
2018-09-04T14:38:17.100Z,4.22
2018-09-04T14:40:46.432Z,4.60
2018-09-04T14:43:15.637Z,4.30
2018-09-04T14:45:44.804Z,4.17
2018-09-04T14:48:14.182Z,4.50
2018-09-04T14:50:43.266Z,4.22
2018-09-04T14:53:12.398Z,4.17
2018-09-04T14:55:41.612Z,4.03
2018-09-04T14:58:10.685Z,4.35
2018-09-04T15:00:40.804Z,4.37
2018-09-04T15:03:10.286Z,4.03
2018-09-04T15:05:39.380Z,4.00
2018-09-04T15:08:08.500Z,4.12
2018-09-04T15:10:37.874Z,4.22
2018-09-04T15:13:07.088Z,3.92
2018-09-04T15:15:36.167Z,4.25
2018-09-04T15:18:05.736Z,4.17
2018-09-04T15:20:34.833Z,4.22
2018-09-04T15:23:04.641Z,4.60
2018-09-04T15:25:33.872Z,4.35
2018-09-04T15:28:03.639Z,3.90
2018-09-04T15:30:33.039Z,4.00
